| time (UTC) | temp F | wind direction | speed MPH | gust MPH | rain 1hr in | rain 24hr in | rain mn in | humidity % | barometer mb |
| 20260906164524 | 77 | 248 | 0.0 | 2.0 | 0.00 | 0.00 | 0.00 | 60 | 1021.7 |
| 20260906163031 | 76 | 248 | 0.0 | 2.0 | 0.00 | 0.00 | 0.00 | 63 | 1021.7 |
| 20260906161522 | 76 | 248 | 0.0 | 3.0 | 0.00 | 0.00 | 0.00 | 68 | 1021.6 |
| 20260906160014 | 74 | 248 | 0.0 | 3.0 | 0.00 | 0.00 | 0.00 | 66 | 1021.8 |
| 20260906154523 | 74 | 248 | 1.0 | 2.0 | 0.00 | 0.00 | 0.00 | 68 | 1021.8 |
| 20260906153040 | 72 | 248 | 0.0 | 1.0 | 0.00 | 0.00 | 0.00 | 78 | 1021.9 |
| 20260906151508 | 70 | 248 | 0.0 | 1.0 | 0.00 | 0.00 | 0.00 | 78 | 1022.0 |
| 20260906150010 | 68 | 247 | 0.0 | 2.0 | 0.00 | 0.00 | 0.00 | 79 | 1022.0 |
| 20260906144523 | 66 | 248 | 0.0 | 1.0 | 0.00 | 0.00 | 0.00 | 90 | 1022.2 |
| 20260906143022 | 62 | 248 | 0.0 | 1.0 | 0.00 | 0.00 | 0.00 | 98 | 1021.9 |
| 20260906141531 | 59 | 248 | 0.0 | 0.0 | 0.00 | 0.00 | 0.00 | 98 | 1021.8 |
| 20260906140014 | 57 | 248 | 0.0 | 0.0 | 0.00 | 0.00 | 0.00 | 98 | 1022.0 |
| 20260906134520 | 56 | 248 | 0.0 | 0.0 | 0.00 | 0.00 | 0.00 | 98 | 1022.1 |
| 20260906133031 | 54 | 248 | 0.0 | 0.0 | 0.00 | 0.00 | 0.00 | 98 | 1022.0 |
| 20260906131541 | 52 | 248 | 0.0 | 0.0 | 0.00 | 0.00 | 0.00 | 98 | 1022.0 |
| 20260906130035 | 51 | 248 | 0.0 | 0.0 | 0.00 | 0.00 | 0.00 | 98 | 1021.9 |
| 20260906124521 | 49 | 248 | 0.0 | 0.0 | 0.00 | 0.00 | 0.00 | 98 | 1021.8 |
| 20260906123030 | 49 | 248 | 0.0 | 0.0 | 0.00 | 0.00 | 0.00 | 98 | 1021.5 |
| 20260906121535 | 48 | 248 | 0.0 | 0.0 | 0.00 | 0.00 | 0.00 | 97 | 1021.5 |
| 20260906120030 | 48 | 248 | 0.0 | 0.0 | 0.00 | 0.00 | 0.00 | 97 | 1021.5 |
| 20260906114541 | 47 | 248 | 0.0 | 0.0 | 0.00 | 0.00 | 0.00 | 97 | 1021.4 |
| 20260906113021 | 47 | 248 | 0.0 | 0.0 | 0.00 | 0.00 | 0.00 | 97 | 1021.4 |
| 20260906111529 | 48 | 248 | 0.0 | 0.0 | 0.00 | 0.00 | 0.00 | 97 | 1021.5 |
| 20260906110027 | 48 | 248 | 0.0 | 0.0 | 0.00 | 0.00 | 0.00 | 97 | 1021.3 |
| 20260906104535 | 48 | 248 | 0.0 | 0.0 | 0.00 | 0.00 | 0.00 | 97 | 1021.1 |
| 20260906103018 | 48 | 248 | 0.0 | 0.0 | 0.00 | 0.01 | 0.00 | 97 | 1021.0 |
| 20260906101530 | 48 | 248 | 0.0 | 0.0 | 0.00 | 0.01 | 0.00 | 97 | 1021.0 |
| 20260906100033 | 48 | 248 | 0.0 | 0.0 | 0.00 | 0.01 | 0.00 | 97 | 1021.0 |
| 20260906094539 | 49 | 248 | 0.0 | 0.0 | 0.00 | 0.01 | 0.00 | 97 | 1021.0 |
| 20260906093015 | 49 | 248 | 0.0 | 0.0 | 0.00 | 0.01 | 0.00 | 97 | 1021.0 |
| 20260906091526 | 49 | 248 | 0.0 | 0.0 | 0.00 | 0.01 | 0.00 | 97 | 1021.1 |
| 20260906090028 | 49 | 248 | 0.0 | 0.0 | 0.00 | 0.01 | 0.00 | 97 | 1021.0 |
| 20260906084532 | 50 | 248 | 0.0 | 0.0 | 0.00 | 0.01 | 0.00 | 97 | 1021.1 |
| 20260906083014 | 49 | 248 | 0.0 | 0.0 | 0.00 | 0.01 | 0.00 | 97 | 1021.1 |
| 20260906081520 | 50 | 248 | 0.0 | 0.0 | 0.00 | 0.01 | 0.00 | 97 | 1021.0 |
| 20260906080034 | 50 | 248 | 0.0 | 0.0 | 0.00 | 0.01 | 0.00 | 96 | 1020.9 |
| 20260906074532 | 50 | 248 | 0.0 | 0.0 | 0.00 | 0.01 | 0.00 | 96 | 1020.7 |
| 20260906073030 | 51 | 248 | 0.0 | 0.0 | 0.00 | 0.01 | 0.00 | 97 | 1020.6 |
| 20260906071525 | 51 | 248 | 0.0 | 0.0 | 0.00 | 0.01 | 0.00 | 96 | 1020.6 |
| 20260906070024 | 51 | 248 | 0.0 | 0.0 | 0.00 | 0.01 | 0.00 | 96 | 1020.6 |
| 20260906064529 | 51 | 248 | 0.0 | 0.0 | 0.00 | 0.01 | 0.00 | 96 | 1020.7 |
| 20260906063034 | 52 | 248 | 0.0 | 0.0 | 0.00 | 0.01 | 0.00 | 97 | 1020.7 |
| 20260906061515 | 52 | 248 | 0.0 | 0.0 | 0.00 | 0.01 | 0.00 | 96 | 1020.6 |
| 20260906060024 | 52 | 248 | 0.0 | 0.0 | 0.00 | 0.01 | 0.00 | 96 | 1020.4 |
| 20260906054530 | 52 | 248 | 0.0 | 0.0 | 0.00 | 0.01 | 0.00 | 96 | 1020.2 |
| 20260906053029 | 52 | 248 | 0.0 | 0.0 | 0.00 | 0.01 | 0.00 | 95 | 1020.1 |
| 20260906051536 | 53 | 248 | 0.0 | 0.0 | 0.00 | 0.01 | 0.00 | 95 | 1020.1 |
| 20260906050018 | 53 | 248 | 0.0 | 0.0 | 0.00 | 0.01 | 0.00 | 95 | 1020.1 |
| 20260906044524 | 53 | 248 | 0.0 | 0.0 | 0.00 | 0.01 | 0.01 | 95 | 1019.9 |
| 20260906043032 | 54 | 248 | 0.0 | 0.0 | 0.00 | 0.01 | 0.01 | 95 | 1019.8 |
| 20260906041531 | 54 | 248 | 0.0 | 0.0 | 0.00 | 0.01 | 0.01 | 94 | 1020.1 |
| 20260906040036 | 54 | 248 | 0.0 | 0.0 | 0.00 | 0.01 | 0.01 | 94 | 1020.0 |
| 20260906034527 | 55 | 248 | 0.0 | 0.0 | 0.00 | 0.01 | 0.01 | 94 | 1019.8 |
| 20260906033032 | 56 | 248 | 0.0 | 0.0 | 0.00 | 0.01 | 0.01 | 94 | 1019.6 |
| 20260906031532 | 56 | 248 | 0.0 | 0.0 | 0.00 | 0.01 | 0.01 | 94 | 1019.6 |
| 20260906030030 | 57 | 248 | 0.0 | 0.0 | 0.00 | 0.01 | 0.01 | 93 | 1019.7 |
| 20260906024514 | 58 | 248 | 0.0 | 0.0 | 0.00 | 0.01 | 0.01 | 93 | 1019.7 |
| 20260906023029 | 58 | 248 | 0.0 | 0.0 | 0.00 | 0.01 | 0.01 | 93 | 1019.6 |
| 20260906021538 | 59 | 248 | 0.0 | 0.0 | 0.00 | 0.01 | 0.01 | 93 | 1019.5 |
| 20260906020031 | 60 | 248 | 0.0 | 0.0 | 0.00 | 0.01 | 0.01 | 93 | 1019.4 |
| 20260906014530 | 61 | 248 | 0.0 | 0.0 | 0.00 | 0.01 | 0.01 | 93 | 1019.2 |
| 20260906013020 | 61 | 248 | 0.0 | 0.0 | 0.00 | 0.01 | 0.01 | 93 | 1018.9 |
| 20260906011525 | 62 | 248 | 0.0 | 0.0 | 0.00 | 0.01 | 0.01 | 93 | 1018.9 |
| 20260906010030 | 62 | 248 | 0.0 | 0.0 | 0.00 | 0.01 | 0.01 | 93 | 1019.0 |
| 20260906004533 | 63 | 248 | 0.0 | 0.0 | 0.00 | 0.01 | 0.01 | 92 | 1018.6 |
| 20260906003036 | 63 | 248 | 0.0 | 0.0 | 0.00 | 0.01 | 0.01 | 91 | 1018.5 |
| 20260906001541 | 64 | 248 | 0.0 | 0.0 | 0.00 | 0.01 | 0.01 | 90 | 1018.4 |
| 20260906000028 | 66 | 248 | 0.0 | 0.0 | 0.00 | 0.01 | 0.01 | 88 | 1018.4 |
| 20260905234533 | 67 | 248 | 0.0 | 0.0 | 0.00 | 0.01 | 0.01 | 86 | 1018.3 |
| 20260905233018 | 68 | 248 | 0.0 | 0.0 | 0.00 | 0.01 | 0.01 | 84 | 1018.2 |
| 20260905231523 | 69 | 248 | 0.0 | 0.0 | 0.00 | 0.02 | 0.01 | 81 | 1018.2 |
| 20260905230031 | 70 | 248 | 0.0 | 0.0 | 0.00 | 0.02 | 0.01 | 80 | 1018.2 |
| 20260905224530 | 71 | 248 | 0.0 | 0.0 | 0.00 | 0.02 | 0.01 | 76 | 1018.2 |
| 20260905223025 | 72 | 248 | 0.0 | 0.0 | 0.00 | 0.02 | 0.01 | 73 | 1018.1 |
| 20260905221522 | 72 | 248 | 0.0 | 1.0 | 0.00 | 0.02 | 0.01 | 74 | 1018.3 |
| 20260905220027 | 72 | 248 | 0.0 | 1.0 | 0.00 | 0.02 | 0.01 | 76 | 1018.2 |
| 20260905214531 | 72 | 248 | 0.0 | 0.0 | 0.00 | 0.02 | 0.01 | 73 | 1018.4 |
| 20260905213033 | 74 | 248 | 0.0 | 0.0 | 0.00 | 0.03 | 0.01 | 74 | 1018.4 |
| 20260905211514 | 76 | 248 | 0.0 | 2.0 | 0.00 | 0.03 | 0.01 | 64 | 1018.4 |
| 20260905210033 | 77 | 248 | 0.0 | 3.0 | 0.00 | 0.03 | 0.01 | 60 | 1018.2 |
| 20260905204525 | 76 | 248 | 1.0 | 3.0 | 0.00 | 0.03 | 0.01 | 61 | 1018.1 |
| 20260905203007 | 76 | 248 | 0.0 | 2.0 | 0.00 | 0.03 | 0.01 | 60 | 1017.9 |
| 20260905201520 | 77 | 248 | 0.0 | 1.0 | 0.00 | 0.03 | 0.01 | 64 | 1018.3 |
| 20260905200031 | 78 | 248 | 0.0 | 2.0 | 0.00 | 0.03 | 0.01 | 62 | 1018.4 |
| 20260905194504 | 79 | 248 | 1.0 | 2.0 | 0.00 | 0.03 | 0.01 | 57 | 1018.5 |
| 20260905193015 | 78 | 248 | 0.0 | 2.0 | 0.00 | 0.03 | 0.01 | 62 | 1018.5 |
| 20260905191508 | 78 | 248 | 1.0 | 1.0 | 0.00 | 0.03 | 0.01 | 63 | 1018.6 |
| 20260905190014 | 79 | 248 | 0.0 | 2.0 | 0.00 | 0.03 | 0.01 | 59 | 1018.7 |
| 20260905184504 | 79 | 248 | 1.0 | 2.0 | 0.00 | 0.03 | 0.01 | 58 | 1018.6 |
| 20260905183003 | 78 | 248 | 0.0 | 3.0 | 0.00 | 0.04 | 0.01 | 60 | 1018.8 |
| 20260905181508 | 78 | 248 | 1.0 | 4.0 | 0.00 | 0.04 | 0.01 | 61 | 1019.2 |
| 20260905180011 | 78 | 248 | 1.0 | 3.0 | 0.00 | 0.04 | 0.01 | 63 | 1019.2 |
| 20260905174522 | 75 | 248 | 1.0 | 2.0 | 0.00 | 0.04 | 0.01 | 68 | 1019.3 |
| 20260905173008 | 73 | 248 | 0.0 | 1.0 | 0.00 | 0.04 | 0.01 | 71 | 1019.3 |
| 20260905171507 | 74 | 248 | 0.0 | 2.0 | 0.00 | 0.04 | 0.01 | 70 | 1019.5 |
| 20260905170012 | 75 | 248 | 0.0 | 2.0 | 0.00 | 0.04 | 0.01 | 74 | 1019.7 |